Time;durP1;ratioP1;P1;durP2;ratioP2;P2;SDS_P1;SDS_P2;PMS_P1;PMS_P2;Temp;Humidity;BMP_temperature;BMP_pressure;BME280_temperature;BME280_humidity;BME280_pressure;Samples;Min_cycle;Max_cycle;Signal;HPM_P1;HPM_P2
2022/12/26 00:01:12;;;;;;;6.43;3.58;;;;;;;9.57;100.00;98104.81;4202350;28;20491;-79
2022/12/26 00:03:12;;;;;;;5.00;3.10;;;;;;;9.49;100.00;98081.06;4192745;28;20056;-79
2022/12/26 00:05:13;;;;;;;5.10;3.78;;;;;;;9.39;100.00;98085.31;4202279;28;20036;-79
2022/12/26 00:07:13;;;;;;;5.38;3.72;;;;;;;9.29;100.00;98066.69;4193642;28;20070;-79
2022/12/26 00:09:14;;;;;;;6.28;3.90;;;;;;;9.19;100.00;98078.41;4201637;28;20039;-79
2022/12/26 00:11:15;;;;;;;7.40;3.88;;;;;;;9.19;100.00;98053.56;4201079;28;20059;-79
2022/12/26 00:13:15;;;;;;;7.38;3.90;;;;;;;9.18;100.00;98069.31;4200104;28;20048;-79
2022/12/26 00:15:16;;;;;;;4.88;3.45;;;;;;;9.28;100.00;98063.13;4202696;28;20440;-79
2022/12/26 00:17:16;;;;;;;4.82;3.65;;;;;;;9.32;100.00;98070.63;4202063;28;20438;-79
2022/12/26 00:19:16;;;;;;;5.63;3.90;;;;;;;9.28;100.00;98067.84;4202950;28;20040;-79
2022/12/26 00:21:18;;;;;;;5.32;3.72;;;;;;;9.18;100.00;98068.53;4201154;28;20040;-79
2022/12/26 00:23:18;;;;;;;4.50;3.35;;;;;;;9.09;100.00;98063.31;4200168;28;20387;-79
2022/12/26 00:25:18;;;;;;;5.60;3.88;;;;;;;8.99;100.00;98058.47;4203348;28;20119;-79
2022/12/26 00:27:19;;;;;;;5.18;4.13;;;;;;;8.99;100.00;98050.19;4201178;28;20078;-79
2022/12/26 00:29:19;;;;;;;6.80;4.20;;;;;;;8.97;100.00;98044.25;4201160;28;20040;-79
2022/12/26 00:31:26;;;;;;;6.30;3.33;;;;;;;9.01;100.00;98056.13;4199668;28;20340;-79
2022/12/26 00:33:26;;;;;;;5.63;3.75;;;;;;;9.00;100.00;98044.28;4198454;28;20476;-80
2022/12/26 00:35:27;;;;;;;4.28;3.55;;;;;;;8.98;100.00;98057.69;4202378;28;20207;-78
2022/12/26 00:37:27;;;;;;;5.25;3.40;;;;;;;9.08;100.00;98058.16;4202002;28;20135;-79
2022/12/26 00:39:27;;;;;;;4.60;3.50;;;;;;;9.00;100.00;98055.31;4203015;28;20048;-79
2022/12/26 00:41:28;;;;;;;4.88;3.35;;;;;;;9.04;100.00;98052.63;4200662;28;20055;-79
2022/12/26 00:43:29;;;;;;;5.00;3.05;;;;;;;9.02;100.00;98052.22;4193733;28;20447;-79
2022/12/26 00:45:29;;;;;;;3.63;2.83;;;;;;;9.21;100.00;98065.03;4199453;28;20109;-79
2022/12/26 00:47:30;;;;;;;3.60;2.90;;;;;;;9.34;100.00;98066.31;4201725;28;20036;-79
2022/12/26 00:49:30;;;;;;;4.93;2.83;;;;;;;9.38;100.00;98056.13;4200659;28;20055;-79
2022/12/26 00:51:30;;;;;;;3.20;2.70;;;;;;;9.34;100.00;98057.25;4185945;28;20159;-79
2022/12/26 00:53:31;;;;;;;4.28;2.90;;;;;;;9.25;100.00;98050.06;4201678;28;20044;-79
2022/12/26 00:55:32;;;;;;;4.60;3.13;;;;;;;9.24;100.00;98031.91;4201065;28;20040;-79
2022/12/26 00:57:32;;;;;;;4.88;3.03;;;;;;;9.24;100.00;98040.19;4202369;28;20058;-79
2022/12/26 00:59:32;;;;;;;5.25;2.83;;;;;;;9.32;100.00;98054.06;4200484;28;20066;-79
2022/12/26 01:01:33;;;;;;;4.72;2.85;;;;;;;9.32;100.00;98051.31;4200736;28;20143;-79
2022/12/26 01:03:33;;;;;;;3.58;2.60;;;;;;;9.42;100.00;98050.63;4201914;28;20227;-78
2022/12/26 01:05:34;;;;;;;4.10;2.88;;;;;;;9.41;100.00;98065.59;4201760;28;20052;-78
2022/12/26 01:07:35;;;;;;;3.03;2.50;;;;;;;9.41;100.00;98069.16;4201556;28;20097;-78
2022/12/26 01:09:37;;;;;;;3.53;2.30;;;;;;;9.42;100.00;98072.69;4191522;28;20044;-79
2022/12/26 01:11:40;;;;;;;3.55;2.38;;;;;;;9.50;100.00;98075.16;4198566;28;20436;-78
2022/12/26 01:13:41;;;;;;;4.30;2.60;;;;;;;9.54;100.00;98069.69;4199353;28;20702;-79
2022/12/26 01:15:50;;;;;;;4.30;3.17;;;;;;;9.53;100.00;98079.13;4197802;28;20407;-79
2022/12/26 01:17:50;;;;;;;3.83;2.70;;;;;;;9.57;100.00;98072.47;4202463;28;20048;-78
2022/12/26 01:19:51;;;;;;;3.83;2.40;;;;;;;9.57;100.00;98064.16;4201138;28;20055;-78
2022/12/26 01:21:51;;;;;;;3.78;2.70;;;;;;;9.56;100.00;98078.38;4201588;28;20333;-79
2022/12/26 01:23:51;;;;;;;3.58;2.53;;;;;;;9.53;100.00;98062.56;4199714;28;20109;-79
2022/12/26 01:25:52;;;;;;;3.15;2.65;;;;;;;9.53;100.00;98063.38;4201663;28;20052;-78
2022/12/26 01:27:52;;;;;;;3.58;2.40;;;;;;;9.51;100.00;98067.66;4200941;28;20342;-79
2022/12/26 01:29:53;;;;;;;2.58;2.20;;;;;;;9.48;100.00;98062.91;4200661;28;20052;-78
2022/12/26 01:31:54;;;;;;;4.28;3.03;;;;;;;9.42;100.00;98054.16;4200610;28;20271;-78
2022/12/26 01:33:54;;;;;;;4.13;2.50;;;;;;;9.36;100.00;98064.00;4199692;28;20166;-79
2022/12/26 01:35:54;;;;;;;4.15;2.42;;;;;;;9.45;100.00;98069.19;4198355;28;20304;-79
2022/12/26 01:37:55;;;;;;;3.53;2.28;;;;;;;9.55;100.00;98051.94;4201995;28;20048;-79
2022/12/26 01:39:55;;;;;;;3.47;2.60;;;;;;;9.61;100.00;98057.91;4203303;28;20119;-79
2022/12/26 01:41:56;;;;;;;4.93;2.72;;;;;;;9.57;100.00;98044.03;4201828;28;20051;-79
2022/12/26 01:44:40;;;;;;;3.53;2.35;;;;;;;9.55;100.00;98054.69;4200614;28;20534;-78
2022/12/26 01:46:43;;;;;;;4.60;2.40;;;;;;;9.50;100.00;98049.50;4201468;28;20093;-78
2022/12/26 01:48:45;;;;;;;3.53;2.70;;;;;;;9.49;100.00;98053.44;4192706;28;20048;-78
2022/12/26 01:50:56;;;;;;;4.72;2.92;;;;;;;9.50;100.00;98069.63;4200070;28;20044;-79
2022/12/26 01:53:01;;;;;;;3.85;2.63;;;;;;;9.50;100.00;98058.59;4202431;28;20138;-79
2022/12/26 01:55:04;;;;;;;4.00;2.30;;;;;;;9.51;100.00;98071.22;4200351;28;20048;-78
2022/12/26 01:57:11;;;;;;;3.35;2.58;;;;;;;9.49;100.00;98072.78;4202871;28;20391;-79
2022/12/26 01:59:24;;;;;;;5.13;2.80;;;;;;;9.56;100.00;98059.03;4201598;28;20044;-79
2022/12/26 02:01:30;;;;;;;3.42;2.28;;;;;;;9.58;100.00;98063.00;4219878;28;20055;-78
2022/12/26 02:05:52;;;;;;;3.80;2.70;;;;;;;9.65;100.00;98086.34;4204707;28;20047;-79
2022/12/26 02:07:53;;;;;;;3.40;2.78;;;;;;;9.71;100.00;98071.00;4204906;28;20151;-78
2022/12/26 02:09:54;;;;;;;2.78;2.25;;;;;;;9.72;100.00;98087.19;4203645;28;20079;-78
2022/12/26 02:12:07;;;;;;;3.05;2.28;;;;;;;9.72;100.00;98086.41;4201983;28;20453;-79
2022/12/26 02:14:09;;;;;;;4.30;2.67;;;;;;;9.70;100.00;98080.47;4203899;28;20163;-79
2022/12/26 02:16:13;;;;;;;3.47;2.30;;;;;;;9.64;100.00;98093.84;4194501;28;20496;-78
2022/12/26 02:18:14;;;;;;;3.33;2.45;;;;;;;9.64;100.00;98091.06;4203365;28;20364;-78
2022/12/26 02:20:27;;;;;;;4.28;2.67;;;;;;;9.66;100.00;98085.16;4202116;28;20362;-78
2022/12/26 02:22:40;;;;;;;4.57;2.78;;;;;;;9.67;100.00;98084.78;4201277;28;20087;-78
2022/12/26 02:25:00;;;;;;;5.78;2.63;;;;;;;9.64;100.00;98071.72;4203860;28;20055;-78
2022/12/26 02:27:14;;;;;;;2.88;2.53;;;;;;;9.63;100.00;98083.16;4202910;28;20036;-79
2022/12/26 02:29:20;;;;;;;2.95;2.40;;;;;;;9.64;100.00;98077.25;4201362;28;20055;-79
2022/12/26 02:31:40;;;;;;;5.00;2.75;;;;;;;9.69;100.00;98070.59;4192645;28;20052;-79
2022/12/26 02:34:03;;;;;;;9.10;2.50;;;;;;;9.73;100.00;98077.72;4202102;28;20455;-78
2022/12/26 02:36:21;;;;;;;;;;;;;;;9.70;100.00;98077.72;4193458;28;20060;-78
2022/12/26 02:38:33;;;;;;;3.10;2.45;;;;;;;9.69;100.00;98084.41;4203180;28;19928;-78
2022/12/26 02:40:55;;;;;;;3.67;2.35;;;;;;;9.78;100.00;98082.13;4203220;28;20076;-78
2022/12/26 02:42:58;;;;;;;4.13;2.72;;;;;;;9.82;100.00;98082.94;4203061;28;20539;-78
2022/12/26 02:48:01;;;;;;;3.97;2.22;;;;;;;9.86;100.00;98081.00;4202504;28;20509;-78
2022/12/26 03:13:11;;;;;;;4.50;2.55;;;;;;;9.84;100.00;98097.94;4200880;28;20395;-79
2022/12/26 03:15:15;;;;;;;4.93;2.97;;;;;;;9.84;100.00;98094.38;4203228;28;20154;-79
2022/12/26 03:17:43;;;;;;;3.63;2.22;;;;;;;9.92;100.00;98098.78;4203245;28;20036;-79
2022/12/26 03:19:58;;;;;;;3.05;2.20;;;;;;;9.97;100.00;98095.69;4201429;28;20063;-78
2022/12/26 03:22:29;;;;;;;4.15;2.35;;;;;;;10.02;100.00;98094.53;4199340;28;20067;-78
2022/12/26 03:24:22;;;;;;;4.35;2.15;;;;;;;10.06;100.00;98084.28;4202405;28;20395;-78
2022/12/26 03:26:39;;;;;;;4.20;2.40;;;;;;;10.07;100.00;98083.13;4203702;28;20028;-78
2022/12/26 03:28:41;;;;;;;4.47;2.45;;;;;;;10.08;100.00;98093.78;4198745;28;20032;-78
2022/12/26 03:30:48;;;;;;;3.70;2.55;;;;;;;10.08;100.00;98082.72;4202299;28;20040;-79
2022/12/26 03:32:48;;;;;;;4.32;2.45;;;;;;;10.06;100.00;98095.34;4203185;28;20644;-79
2022/12/26 03:34:48;;;;;;;2.97;2.30;;;;;;;10.07;100.00;98108.78;4203663;28;20052;-79
2022/12/26 03:37:09;;;;;;;3.92;2.35;;;;;;;10.09;99.94;98111.16;4202476;28;20433;-78
2022/12/26 04:20:07;;;;;;;3.40;2.47;;;;;;;10.05;100.00;98091.00;4200589;28;20120;-77
2022/12/26 04:44:18;;;;;;;3.65;2.85;;;;;;;9.83;100.00;98104.66;4199811;28;20048;-78
2022/12/26 04:46:21;;;;;;;4.45;2.88;;;;;;;9.83;100.00;98104.66;4202072;28;20028;-79
2022/12/26 04:50:51;;;;;;;3.72;2.53;;;;;;;9.84;100.00;98097.16;4201657;28;20054;-79
2022/12/26 04:52:57;;;;;;;3.30;2.58;;;;;;;9.90;100.00;98097.59;4198454;28;20041;-78
2022/12/26 04:54:57;;;;;;;6.85;2.58;;;;;;;9.92;100.00;98107.09;4202499;28;20468;-79
2022/12/26 04:56:58;;;;;;;4.43;2.58;;;;;;;9.96;100.00;98113.44;4202667;28;20055;-79
2022/12/26 04:58:58;;;;;;;3.13;2.53;;;;;;;10.01;100.00;98098.47;4200095;28;20044;-78
2022/12/26 05:09:33;;;;;;;5.47;3.35;;;;;;;9.96;100.00;98090.53;4191301;28;20048;-78
2022/12/26 05:10:22;;;;;;;3.42;2.63;;;;;;;9.70;100.00;98067.44;4199984;28;20127;-78
2022/12/26 05:12:22;;;;;;;6.10;2.78;;;;;;;9.72;100.00;98061.53;4199309;28;20311;-78
2022/12/26 05:14:23;;;;;;;7.20;2.80;;;;;;;9.70;100.00;98056.41;4199936;28;20480;-78
2022/12/26 05:30:34;;;;;;;3.72;2.33;;;;;;;9.63;100.00;98059.09;4201146;28;20043;-78
2022/12/26 05:34:54;;;;;;;4.45;2.50;;;;;;;9.61;100.00;98074.47;4205341;28;20097;-78
2022/12/26 05:36:57;;;;;;;3.67;2.40;;;;;;;9.56;100.00;98075.59;4204842;28;20048;-78
2022/12/26 05:38:58;;;;;;;4.78;2.28;;;;;;;9.52;100.00;98074.78;4205707;28;20044;-78
2022/12/26 05:40:58;;;;;;;3.03;2.35;;;;;;;9.49;100.00;98076.31;4202225;28;20476;-78
2022/12/26 05:42:59;;;;;;;4.43;2.40;;;;;;;9.51;100.00;98079.50;4201847;28;20052;-78
2022/12/26 05:44:59;;;;;;;5.30;2.63;;;;;;;9.55;100.00;98094.16;4203812;28;20048;-79
2022/12/26 05:46:59;;;;;;;3.90;2.70;;;;;;;9.50;100.00;98080.69;4204994;28;20275;-78
2022/12/26 05:49:00;;;;;;;3.83;2.60;;;;;;;9.56;100.00;98086.66;4194210;28;20036;-78
2022/12/26 05:51:02;;;;;;;4.13;2.22;;;;;;;9.58;100.00;98098.91;4204800;28;20060;-79
2022/12/26 05:53:03;;;;;;;5.78;2.50;;;;;;;9.63;100.00;98096.97;4203660;28;20088;-78
2022/12/26 05:55:03;;;;;;;5.57;2.60;;;;;;;9.59;100.00;98107.97;4204444;28;20123;-79
2022/12/26 05:57:04;;;;;;;4.40;2.65;;;;;;;9.53;100.00;98112.28;4201446;28;20048;-78
2022/12/26 05:59:04;;;;;;;3.88;2.30;;;;;;;9.51;100.00;98103.56;4203516;28;20389;-78
2022/12/26 06:01:11;;;;;;;3.45;2.10;;;;;;;9.45;100.00;98111.41;4216918;27;20140;-78
2022/12/26 06:03:11;;;;;;;3.88;2.20;;;;;;;9.50;100.00;98110.25;4203600;28;20059;-78
2022/12/26 06:05:12;;;;;;;3.72;2.17;;;;;;;9.55;100.00;98120.97;4202557;28;20172;-78
2022/12/26 06:07:12;;;;;;;5.90;2.40;;;;;;;9.63;100.00;98117.09;4203445;28;20087;-79
2022/12/26 06:09:12;;;;;;;2.85;2.05;;;;;;;9.68;100.00;98129.75;4203260;28;20047;-78
2022/12/26 06:11:14;;;;;;;5.82;2.63;;;;;;;9.65;100.00;98114.75;4203823;28;20119;-78
2022/12/26 06:13:14;;;;;;;5.50;2.30;;;;;;;9.65;100.00;98125.00;4204691;28;20347;-78
2022/12/26 06:15:15;;;;;;;2.60;2.05;;;;;;;9.64;100.00;98128.94;4203805;28;20039;-78
2022/12/26 06:17:15;;;;;;;4.45;2.50;;;;;;;9.60;100.00;98115.13;4194694;28;20595;-78
2022/12/26 06:19:16;;;;;;;3.20;2.05;;;;;;;9.63;100.00;98130.13;4203529;28;20119;-79
2022/12/26 06:21:18;;;;;;;4.07;2.78;;;;;;;9.56;100.00;98130.84;4201530;28;20044;-78
2022/12/26 06:23:19;;;;;;;;;;;;;;;9.60;100.00;98131.69;4204607;28;20104;-79
2022/12/26 06:25:19;;;;;;;3.67;1.83;;;;;;;9.57;100.00;98126.91;4204090;28;20006;-78
2022/12/26 06:27:19;;;;;;;3.80;2.10;;;;;;;9.60;100.00;98119.81;4203474;28;20037;-79
2022/12/26 06:29:20;;;;;;;3.78;2.50;;;;;;;9.65;99.71;98113.97;4203222;28;20055;-79
2022/12/26 06:31:22;;;;;;;2.85;2.00;;;;;;;9.67;99.50;98109.63;4204184;28;20119;-78
2022/12/26 06:33:23;;;;;;;2.92;2.20;;;;;;;9.72;99.27;98111.25;4202711;28;20471;-78
2022/12/26 06:35:23;;;;;;;3.05;2.15;;;;;;;9.73;99.36;98107.31;4201971;28;20130;-79
2022/12/26 06:37:23;;;;;;;3.47;2.22;;;;;;;9.73;98.43;98110.09;4204446;28;20048;-78
2022/12/26 06:39:24;;;;;;;4.32;2.20;;;;;;;9.75;98.30;98107.72;4203658;28;20040;-78
2022/12/26 06:41:24;;;;;;;3.35;2.30;;;;;;;9.74;97.99;98092.34;4202317;28;20213;-78
2022/12/26 06:43:25;;;;;;;3.15;2.38;;;;;;;9.73;98.37;98097.06;4204265;28;20439;-79
2022/12/26 06:45:25;;;;;;;3.40;2.13;;;;;;;9.79;97.47;98101.06;4203702;28;20032;-78
2022/12/26 06:47:25;;;;;;;3.42;2.00;;;;;;;9.83;96.75;98106.63;4202767;28;20050;-79
2022/12/26 06:49:26;;;;;;;2.70;1.90;;;;;;;9.86;96.53;98100.34;4202851;28;20143;-78
2022/12/26 06:51:27;;;;;;;2.80;1.80;;;;;;;9.81;97.69;98126.34;4202261;28;20109;-79
2022/12/26 06:53:28;;;;;;;3.60;1.83;;;;;;;9.87;97.25;98124.03;4203219;28;20323;-78
2022/12/26 06:55:28;;;;;;;5.22;2.42;;;;;;;9.84;97.96;98139.38;4202990;28;20517;-78
2022/12/26 06:57:28;;;;;;;3.28;2.05;;;;;;;9.88;97.12;98139.44;4196643;28;20495;-78
2022/12/26 06:59:29;;;;;;;3.10;2.08;;;;;;;9.85;97.52;98134.69;4201500;28;20123;-78
2022/12/26 07:01:32;;;;;;;5.03;2.60;;;;;;;9.86;97.12;98147.31;4202615;28;20185;-78
2022/12/26 07:03:33;;;;;;;7.40;3.38;;;;;;;9.89;96.88;98146.53;4203465;28;20055;-78
2022/12/26 07:05:38;;;;;;;7.22;3.33;;;;;;;9.83;96.99;98150.81;4195432;28;20044;-78
2022/12/26 07:07:38;;;;;;;6.03;3.90;;;;;;;9.89;96.97;98146.53;4202847;28;20119;-78
2022/12/26 07:09:39;;;;;;;5.00;3.17;;;;;;;9.87;96.99;98161.94;4202012;28;20134;-78
2022/12/26 07:11:42;;;;;;;5.05;2.80;;;;;;;9.85;97.39;98154.03;4204990;28;20032;-78
2022/12/26 07:13:42;;;;;;;4.45;2.30;;;;;;;9.84;97.45;98153.19;4203898;28;20313;-79
2022/12/26 07:15:42;;;;;;;4.78;2.75;;;;;;;9.83;97.67;98157.13;4203253;28;20079;-79
2022/12/26 07:17:43;;;;;;;3.90;2.40;;;;;;;9.74;98.28;98158.63;4201933;28;20044;-78
2022/12/26 07:19:43;;;;;;;3.80;2.17;;;;;;;9.79;98.08;98152.78;4203275;28;20051;-78
2022/12/26 07:21:44;;;;;;;4.30;2.45;;;;;;;9.73;98.43;98157.06;4201640;28;20190;-78
2022/12/26 07:23:44;;;;;;;3.67;2.53;;;;;;;9.71;98.33;98151.91;4201067;28;20495;-78
2022/12/26 07:25:47;;;;;;;6.57;2.60;;;;;;;9.71;98.53;98153.88;4203442;28;20390;-79
2022/12/26 07:27:52;;;;;;;5.00;2.15;;;;;;;9.76;98.62;98161.81;4203829;28;20436;-79
2022/12/26 07:29:52;;;;;;;4.45;2.45;;;;;;;9.79;98.48;98166.59;4196064;28;20059;-78
2022/12/26 07:31:52;;;;;;;4.80;2.63;;;;;;;9.79;98.00;98188.69;4202752;28;20052;-78
2022/12/26 07:33:54;;;;;;;5.13;2.28;;;;;;;9.82;98.51;98183.19;4193678;28;20046;-79
2022/12/26 07:35:59;;;;;;;3.88;2.17;;;;;;;9.83;98.42;98172.94;4203068;28;20468;-78
2022/12/26 07:37:59;;;;;;;3.05;2.22;;;;;;;9.90;98.00;98192.34;4203894;28;20048;-78
2022/12/26 07:39:59;;;;;;;4.45;2.30;;;;;;;9.91;97.78;98202.22;4199182;28;20040;-78
2022/12/26 07:42:00;;;;;;;3.83;2.22;;;;;;;9.90;97.99;98200.63;4201150;28;20044;-79
2022/12/26 07:44:01;;;;;;;2.47;2.03;;;;;;;9.96;97.52;98193.59;4202787;28;20067;-78
2022/12/26 07:46:01;;;;;;;4.25;2.20;;;;;;;9.98;97.98;98204.25;4197999;28;20044;-77
2022/12/26 07:48:01;;;;;;;3.58;2.38;;;;;;;9.99;97.84;98176.25;4153246;28;20020;-77
2022/12/26 07:50:02;;;;;;;3.70;2.30;;;;;;;9.99;97.58;98186.50;4152587;28;20201;-77
2022/12/26 07:52:03;;;;;;;5.15;2.25;;;;;;;10.02;97.60;98174.69;4203040;28;20525;-78
2022/12/26 07:54:04;;;;;;;5.40;2.95;;;;;;;10.04;97.40;98184.19;4201312;28;20028;-78
2022/12/26 07:56:05;;;;;;;3.17;2.28;;;;;;;10.06;97.34;98184.59;4202174;28;20161;-78
2022/12/26 07:58:05;;;;;;;3.38;2.20;;;;;;;10.09;96.80;98191.31;4203830;28;20078;-78
2022/12/26 08:00:07;;;;;;;4.90;2.05;;;;;;;10.07;97.16;98196.44;4199703;28;20473;-78
2022/12/26 08:02:09;;;;;;;3.25;2.20;;;;;;;10.06;97.23;98197.63;4200725;28;20036;-78
2022/12/26 08:04:10;;;;;;;5.35;2.08;;;;;;;10.07;97.64;98200.00;4199120;28;20067;-78
2022/12/26 08:06:11;;;;;;;2.45;1.85;;;;;;;10.03;97.50;98198.41;4200196;28;20028;-78
2022/12/26 08:08:11;;;;;;;3.85;2.22;;;;;;;9.97;97.86;98200.69;4199267;28;20530;-78
2022/12/26 08:10:11;;;;;;;3.20;2.05;;;;;;;9.96;97.18;98199.13;4201617;28;20026;-78
2022/12/26 08:12:12;;;;;;;4.28;2.08;;;;;;;9.92;97.98;98180.91;4199940;28;20043;-78
2022/12/26 08:14:15;;;;;;;4.00;2.10;;;;;;;9.93;97.73;98177.78;4199079;28;20419;-78
2022/12/26 08:16:16;;;;;;;3.63;2.00;;;;;;;9.94;97.48;98179.38;4200003;28;20043;-78
2022/12/26 08:18:17;;;;;;;4.68;2.03;;;;;;;9.92;97.76;98178.94;4201190;28;20036;-79
2022/12/26 08:20:17;;;;;;;3.05;2.30;;;;;;;9.95;97.88;98180.94;4199228;28;20034;-78
2022/12/26 08:22:17;;;;;;;2.65;2.00;;;;;;;9.99;97.31;98187.28;4201267;28;20035;-78
2022/12/26 08:24:18;;;;;;;2.78;2.30;;;;;;;10.01;97.20;98181.38;4198981;28;20025;-78
2022/12/26 08:26:22;;;;;;;3.40;2.05;;;;;;;9.97;97.59;98183.31;4201293;28;20102;-78
2022/12/26 08:28:22;;;;;;;3.03;2.20;;;;;;;10.00;97.14;98186.09;4202251;28;20051;-78
2022/12/26 08:30:22;;;;;;;3.63;2.15;;;;;;;9.99;98.08;98187.28;4200702;28;20036;-78
2022/12/26 08:32:23;;;;;;;3.78;2.17;;;;;;;10.01;98.00;98195.19;4200913;28;20054;-79
2022/12/26 08:34:23;;;;;;;6.28;2.03;;;;;;;10.00;98.65;98194.41;4199427;28;20498;-79
2022/12/26 08:36:24;;;;;;;3.92;2.40;;;;;;;9.99;99.27;98192.03;4202142;28;20386;-78
2022/12/26 08:38:24;;;;;;;3.60;2.35;;;;;;;9.90;99.94;98194.31;4201617;28;20048;-79
2022/12/26 08:40:24;;;;;;;3.58;1.80;;;;;;;9.82;100.00;98185.94;4196158;28;20045;-79
2022/12/26 08:42:25;;;;;;;3.30;2.28;;;;;;;9.78;100.00;98193.41;4197723;28;20052;-78
2022/12/26 08:44:25;;;;;;;3.30;2.28;;;;;;;9.76;100.00;98204.06;4193725;28;20077;-78
2022/12/26 08:46:25;;;;;;;5.50;2.10;;;;;;;9.72;100.00;98196.91;4201899;28;20036;-79
2022/12/26 08:48:26;;;;;;;4.80;2.20;;;;;;;9.70;100.00;98204.78;4203032;28;20093;-78
2022/12/26 08:50:27;;;;;;;4.53;2.13;;;;;;;9.67;100.00;98211.03;4198272;28;20055;-78
2022/12/26 08:52:27;;;;;;;5.43;2.00;;;;;;;9.68;100.00;98213.44;4201304;28;20476;-78
2022/12/26 08:54:28;;;;;;;3.08;2.25;;;;;;;9.79;100.00;98224.59;4200352;28;20086;-78
2022/12/26 08:56:29;;;;;;;4.88;2.45;;;;;;;9.74;100.00;98220.22;4200061;28;20101;-78
2022/12/26 08:58:30;;;;;;;3.63;2.00;;;;;;;9.72;100.00;98217.03;4201885;28;20044;-78
2022/12/26 09:00:30;;;;;;;5.10;2.10;;;;;;;9.73;100.00;98212.31;4192187;28;20522;-78
2022/12/26 09:02:31;;;;;;;2.95;1.90;;;;;;;9.73;100.00;98213.09;4199652;28;20047;-79
2022/12/26 09:04:31;;;;;;;6.40;2.65;;;;;;;9.75;100.00;98221.78;4199786;28;20036;-78
2022/12/26 09:06:34;;;;;;;2.92;1.80;;;;;;;9.75;100.00;98218.22;4197390;28;20399;-78
2022/12/26 09:08:35;;;;;;;3.22;1.88;;;;;;;9.78;100.00;98215.53;4199976;28;20038;-78
2022/12/26 09:10:36;;;;;;;5.25;1.90;;;;;;;9.76;100.00;98214.28;4199651;28;20063;-79
2022/12/26 09:12:36;;;;;;;3.10;2.20;;;;;;;9.75;100.00;98215.47;4197969;28;20276;-78
2022/12/26 09:14:37;;;;;;;2.75;1.92;;;;;;;9.74;100.00;98222.19;4198934;28;20044;-78
2022/12/26 09:16:45;;;;;;;2.97;1.90;;;;;;;9.81;100.00;98225.00;4198928;28;20083;-78
2022/12/26 09:18:46;;;;;;;4.43;2.03;;;;;;;9.79;100.00;98219.09;4158780;28;1135214;-79
2022/12/26 09:20:46;;;;;;;3.08;2.00;;;;;;;9.80;100.00;98221.47;4200418;28;20476;-79
2022/12/26 09:22:49;;;;;;;2.72;1.90;;;;;;;9.79;100.00;98205.28;4195318;28;20410;-78
2022/12/26 09:24:50;;;;;;;3.35;1.95;;;;;;;9.80;100.00;98215.94;4199903;28;20446;-78
2022/12/26 09:26:50;;;;;;;2.78;2.22;;;;;;;9.82;100.00;98208.06;4200751;28;20123;-78
2022/12/26 09:28:51;;;;;;;2.88;1.75;;;;;;;9.86;100.00;98221.91;4195821;28;20487;-79
2022/12/26 09:30:51;;;;;;;4.30;2.10;;;;;;;9.91;100.00;98209.72;4201650;28;20119;-78
2022/12/26 09:32:52;;;;;;;6.40;2.00;;;;;;;9.87;100.00;98214.44;4194604;28;20361;-79
2022/12/26 09:34:53;;;;;;;3.65;1.75;;;;;;;9.92;100.00;98206.56;4197905;28;20040;-78
2022/12/26 09:36:53;;;;;;;2.60;1.90;;;;;;;9.90;100.00;98205.38;4199483;28;20042;-79
2022/12/26 09:38:55;;;;;;;3.47;1.73;;;;;;;9.90;100.00;98210.88;4200667;28;20040;-78
2022/12/26 09:41:31;;;;;;;2.30;1.70;;;;;;;9.85;100.00;98204.56;4200633;28;20374;-79
2022/12/26 09:43:44;;;;;;;2.58;1.90;;;;;;;9.87;100.00;98201.41;4199457;28;20120;-78
2022/12/26 09:45:58;;;;;;;3.42;1.70;;;;;;;9.87;100.00;98226.28;4201164;28;20876;-78
2022/12/26 09:48:26;;;;;;;4.18;2.15;;;;;;;9.90;100.00;98217.22;4199843;28;20048;-78
2022/12/26 09:50:32;;;;;;;4.07;1.92;;;;;;;9.90;100.00;98228.25;4200275;28;20044;-78
2022/12/26 09:52:49;;;;;;;5.10;1.70;;;;;;;9.90;100.00;98224.72;4199970;28;20043;-79
2022/12/26 09:54:52;;;;;;;2.67;1.67;;;;;;;9.96;100.00;98226.75;4199307;28;20437;-78
2022/12/26 09:56:54;;;;;;;3.67;1.98;;;;;;;9.93;100.00;98235.81;4198910;28;20188;-79
2022/12/26 09:58:59;;;;;;;1.85;1.60;;;;;;;9.93;100.00;98227.53;4202359;28;20487;-78
2022/12/26 10:01:09;;;;;;;2.40;1.88;;;;;;;9.97;100.00;98235.84;4200030;28;20051;-78
2022/12/26 10:03:10;;;;;;;2.10;1.80;;;;;;;10.02;100.00;98247.34;4195860;28;20109;-78
2022/12/26 10:05:12;;;;;;;2.33;1.80;;;;;;;10.08;99.12;98258.84;4217452;28;20039;-78
2022/12/26 10:07:36;;;;;;;3.30;1.92;;;;;;;10.13;98.82;98261.28;4199470;28;20040;-78
2022/12/26 10:10:07;;;;;;;4.13;2.70;;;;;;;10.11;99.21;98258.91;4201519;28;20087;-79
2022/12/26 10:12:30;;;;;;;3.80;3.10;;;;;;;10.08;99.24;98283.72;4193328;28;20654;-79
2022/12/26 10:14:36;;;;;;;6.13;3.80;;;;;;;10.03;100.00;98308.94;4200309;28;20055;-79
2022/12/26 10:16:51;;;;;;;10.30;4.00;;;;;;;9.61;97.93;98303.72;4190444;28;20091;-79
2022/12/26 10:19:09;;;;;;;4.10;2.90;;;;;;;9.28;99.16;98294.22;4202101;28;20483;-77
2022/12/26 10:21:25;;;;;;;3.25;1.55;;;;;;;9.04;100.00;98292.72;4200988;28;20481;-78
2022/12/26 10:23:33;;;;;;;3.63;1.58;;;;;;;8.85;100.00;98292.78;4193537;28;20446;-79
2022/12/26 10:25:44;;;;;;;3.50;2.00;;;;;;;8.66;100.00;98313.78;4201786;28;20036;-78
2022/12/26 10:27:47;;;;;;;3.35;2.17;;;;;;;8.49;100.00;98324.53;4204458;28;20558;-78
2022/12/26 10:29:57;;;;;;;2.25;1.27;;;;;;;8.39;100.00;98323.97;4204428;28;20138;-78
2022/12/26 10:32:03;;;;;;;3.65;1.38;;;;;;;8.22;100.00;98337.41;4201195;28;20059;-78
2022/12/26 10:34:40;;;;;;;3.55;1.95;;;;;;;8.15;100.00;98332.56;4202713;28;20048;-78
2022/12/26 10:36:48;;;;;;;6.15;2.22;;;;;;;8.03;100.00;98336.28;4201314;28;20467;-78
2022/12/26 10:38:51;;;;;;;6.72;2.42;;;;;;;7.84;100.00;98339.03;4203150;28;20044;-78
2022/12/26 10:40:55;;;;;;;5.07;2.78;;;;;;;7.85;100.00;98332.38;4204769;28;20440;-78
2022/12/26 10:43:36;;;;;;;3.13;1.70;;;;;;;7.77;100.00;98325.91;4199769;28;20113;-79
2022/12/26 10:45:52;;;;;;;4.57;2.28;;;;;;;7.76;100.00;98302.28;4193556;28;20040;-78
2022/12/26 10:47:53;;;;;;;6.03;2.42;;;;;;;7.80;100.00;98291.38;4190766;28;20355;-78
2022/12/26 10:49:58;;;;;;;5.43;3.00;;;;;;;7.79;100.00;98309.06;4203589;28;20044;-78
2022/12/26 10:52:00;;;;;;;7.57;3.95;;;;;;;7.76;100.00;98304.25;4201895;28;20063;-79
2022/12/26 10:54:01;;;;;;;16.95;8.65;;;;;;;7.73;100.00;98292.03;4201329;28;20348;-78
2022/12/26 10:56:01;;;;;;;14.70;7.03;;;;;;;7.71;100.00;98310.06;4205391;28;20154;-77
2022/12/26 10:58:30;;;;;;;6.78;3.78;;;;;;;7.74;100.00;98337.69;4204614;28;20071;-77
2022/12/26 11:00:30;;;;;;;5.30;3.35;;;;;;;7.76;100.00;98331.78;4199557;28;20387;-78
2022/12/26 11:02:31;;;;;;;3.80;2.28;;;;;;;7.64;100.00;98334.72;4200382;28;20036;-78
2022/12/26 11:04:31;;;;;;;6.63;3.40;;;;;;;7.73;100.00;98341.59;4194048;28;20645;-78
2022/12/26 11:06:40;;;;;;;14.27;10.10;;;;;;;7.71;100.00;98334.84;4200010;28;20128;-78
2022/12/26 11:08:48;;;;;;;18.20;10.20;;;;;;;7.76;100.00;98349.13;4181313;28;20051;-78
2022/12/26 11:11:16;;;;;;;15.20;10.05;;;;;;;7.77;100.00;98330.63;4201938;28;20043;-78
2022/12/26 11:13:20;;;;;;;14.15;8.18;;;;;;;7.78;100.00;98337.75;4200216;28;20102;-78
2022/12/26 11:15:29;;;;;;;7.43;3.53;;;;;;;7.81;100.00;98345.28;4202159;28;20051;-78
2022/12/26 11:17:33;;;;;;;8.63;4.07;;;;;;;7.79;100.00;98322.81;4200556;28;20085;-78
2022/12/26 11:19:40;;;;;;;9.75;4.22;;;;;;;7.80;100.00;98321.66;4194774;28;20044;-78
2022/12/26 11:21:40;;;;;;;4.32;2.83;;;;;;;7.81;100.00;98295.72;4199208;28;20048;-78
2022/12/26 11:23:41;;;;;;;6.47;3.60;;;;;;;7.86;100.00;98307.25;4202539;28;20047;-78
2022/12/26 11:26:09;;;;;;;7.60;4.05;;;;;;;7.92;100.00;98320.69;4202224;28;20189;-78
2022/12/26 11:28:22;;;;;;;4.78;2.38;;;;;;;7.88;100.00;98299.41;4200143;28;20365;-79
2022/12/26 11:30:32;;;;;;;6.45;2.85;;;;;;;7.92;100.00;98295.91;4199607;28;20040;-78
2022/12/26 11:32:32;;;;;;;7.05;3.45;;;;;;;7.97;100.00;98287.34;4201058;28;20574;-78
2022/12/26 11:34:36;;;;;;;7.45;3.30;;;;;;;7.98;100.00;98284.22;4203458;28;20040;-78
2022/12/26 11:36:43;;;;;;;3.90;2.60;;;;;;;7.98;100.00;98280.69;4201416;28;20036;-78
2022/12/26 11:38:46;;;;;;;5.32;3.50;;;;;;;8.00;100.00;98292.13;4187983;28;20615;-78
2022/12/26 11:41:30;;;;;;;4.38;3.17;;;;;;;8.03;100.00;98277.63;4200252;28;20071;-78
2022/12/26 11:43:16;;;;;;;4.47;2.33;;;;;;;8.08;100.00;98272.59;4199585;28;20039;-79